Anderson Acres, Nevada
Current Conditions -  °F | °C
As of 7:15 PM on Thursday 27 Nov 2014 (Local Time) from KRTS Reporting Station
Clear Clear  
Wind Chill: 13°   Ceiling: Unl
Heat Index: 13°   Visibility: 10mi
Dew Point: -13°   Wind: 12mph
Humidity: 15%   Direction: 240°WSW
Pressure: 30.13"   Gusts: NA
Location:  39.7378°N, 119.889°W
Report Text: KRTS 280315Z AUTO 24010KT 10SM CLR 13/M13 A3013 RMK AO2
Loading
Personal Weather Stations






























Interactive Weather Map New forecast layout! Learn more

10-Day Weather Forecast

Advertisements
Track Severe Weather on mobile